sensor_id;sensor_type;location;lat;lon;timestamp;temperature;humidity
44886;DHT22;36669;51.428;21.162;2023-08-21T00:02:13;22.80;99.90
44886;DHT22;36669;51.428;21.162;2023-08-21T00:04:41;22.80;99.90
44886;DHT22;36669;51.428;21.162;2023-08-21T00:07:08;22.80;99.90
44886;DHT22;36669;51.428;21.162;2023-08-21T00:09:37;22.70;99.90
44886;DHT22;36669;51.428;21.162;2023-08-21T00:12:03;22.70;99.90
44886;DHT22;36669;51.428;21.162;2023-08-21T00:14:29;22.60;99.90
44886;DHT22;36669;51.428;21.162;2023-08-21T00:16:55;22.50;99.90
44886;DHT22;36669;51.428;21.162;2023-08-21T00:19:22;22.50;99.90
44886;DHT22;36669;51.428;21.162;2023-08-21T00:21:47;22.40;99.90
44886;DHT22;36669;51.428;21.162;2023-08-21T00:24:14;22.40;99.90
44886;DHT22;36669;51.428;21.162;2023-08-21T00:26:40;22.40;99.90
44886;DHT22;36669;51.428;21.162;2023-08-21T00:29:05;22.30;99.90
44886;DHT22;36669;51.428;21.162;2023-08-21T00:31:31;22.30;99.90
44886;DHT22;36669;51.428;21.162;2023-08-21T00:33:59;22.20;99.90
44886;DHT22;36669;51.428;21.162;2023-08-21T00:36:24;22.20;99.90
44886;DHT22;36669;51.428;21.162;2023-08-21T00:38:51;22.20;99.90
44886;DHT22;36669;51.428;21.162;2023-08-21T00:41:21;22.10;99.90
44886;DHT22;36669;51.428;21.162;2023-08-21T00:43:47;22.00;99.90
44886;DHT22;36669;51.428;21.162;2023-08-21T00:46:17;22.00;99.90
44886;DHT22;36669;51.428;21.162;2023-08-21T00:48:44;22.00;99.90
44886;DHT22;36669;51.428;21.162;2023-08-21T00:51:10;22.00;99.90
44886;DHT22;36669;51.428;21.162;2023-08-21T00:53:39;21.90;99.90
44886;DHT22;36669;51.428;21.162;2023-08-21T00:56:05;21.90;99.90
44886;DHT22;36669;51.428;21.162;2023-08-21T00:58:33;21.90;99.90
44886;DHT22;36669;51.428;21.162;2023-08-21T01:01:01;22.00;99.90
44886;DHT22;36669;51.428;21.162;2023-08-21T01:03:28;21.90;99.90
44886;DHT22;36669;51.428;21.162;2023-08-21T01:05:55;21.90;99.90
44886;DHT22;36669;51.428;21.162;2023-08-21T01:08:47;21.90;99.90
44886;DHT22;36669;51.428;21.162;2023-08-21T01:16:58;21.80;99.90
44886;DHT22;36669;51.428;21.162;2023-08-21T01:19:43;21.70;99.90
44886;DHT22;36669;51.428;21.162;2023-08-21T01:22:10;21.70;99.90
44886;DHT22;36669;51.428;21.162;2023-08-21T01:24:36;21.70;99.90
44886;DHT22;36669;51.428;21.162;2023-08-21T01:27:01;21.70;99.90
44886;DHT22;36669;51.428;21.162;2023-08-21T01:29:28;21.70;99.90
44886;DHT22;36669;51.428;21.162;2023-08-21T01:32:13;21.60;99.90
44886;DHT22;36669;51.428;21.162;2023-08-21T01:34:43;21.60;99.90
44886;DHT22;36669;51.428;21.162;2023-08-21T01:37:10;21.50;99.90
44886;DHT22;36669;51.428;21.162;2023-08-21T01:39:42;21.40;99.90
44886;DHT22;36669;51.428;21.162;2023-08-21T01:42:10;21.40;99.90
44886;DHT22;36669;51.428;21.162;2023-08-21T01:44:37;21.40;99.90
44886;DHT22;36669;51.428;21.162;2023-08-21T01:47:04;21.40;99.90
44886;DHT22;36669;51.428;21.162;2023-08-21T01:49:32;21.40;99.90
44886;DHT22;36669;51.428;21.162;2023-08-21T01:52:00;21.30;99.90
44886;DHT22;36669;51.428;21.162;2023-08-21T01:54:26;21.30;99.90
44886;DHT22;36669;51.428;21.162;2023-08-21T01:56:52;21.30;99.90
44886;DHT22;36669;51.428;21.162;2023-08-21T01:59:19;21.20;99.90
44886;DHT22;36669;51.428;21.162;2023-08-21T02:01:46;21.20;99.90
44886;DHT22;36669;51.428;21.162;2023-08-21T02:04:13;21.20;99.90
44886;DHT22;36669;51.428;21.162;2023-08-21T02:06:39;21.10;99.90
44886;DHT22;36669;51.428;21.162;2023-08-21T02:09:06;21.10;99.90
44886;DHT22;36669;51.428;21.162;2023-08-21T02:11:32;21.10;99.90
44886;DHT22;36669;51.428;21.162;2023-08-21T02:13:59;21.10;99.90
44886;DHT22;36669;51.428;21.162;2023-08-21T02:16:26;21.00;99.90
44886;DHT22;36669;51.428;21.162;2023-08-21T02:18:52;21.00;99.90
44886;DHT22;36669;51.428;21.162;2023-08-21T02:21:21;21.00;99.90
44886;DHT22;36669;51.428;21.162;2023-08-21T02:23:49;21.00;99.90
44886;DHT22;36669;51.428;21.162;2023-08-21T02:26:16;21.00;99.90
44886;DHT22;36669;51.428;21.162;2023-08-21T02:28:43;21.00;99.90
44886;DHT22;36669;51.428;21.162;2023-08-21T02:31:13;21.00;99.90
44886;DHT22;36669;51.428;21.162;2023-08-21T02:33:39;21.00;99.90
44886;DHT22;36669;51.428;21.162;2023-08-21T02:36:05;21.10;99.90
44886;DHT22;36669;51.428;21.162;2023-08-21T02:38:35;21.00;99.90
44886;DHT22;36669;51.428;21.162;2023-08-21T02:41:11;21.00;99.90
44886;DHT22;36669;51.428;21.162;2023-08-21T02:43:37;20.90;99.90
44886;DHT22;36669;51.428;21.162;2023-08-21T02:46:03;20.90;99.90
44886;DHT22;36669;51.428;21.162;2023-08-21T02:48:30;20.80;99.90
44886;DHT22;36669;51.428;21.162;2023-08-21T02:50:57;20.80;99.90
44886;DHT22;36669;51.428;21.162;2023-08-21T02:53:24;20.80;99.90
44886;DHT22;36669;51.428;21.162;2023-08-21T02:55:51;20.80;99.90
44886;DHT22;36669;51.428;21.162;2023-08-21T02:58:16;20.90;99.90
44886;DHT22;36669;51.428;21.162;2023-08-21T03:00:42;20.90;99.90
44886;DHT22;36669;51.428;21.162;2023-08-21T03:03:09;20.90;99.90
44886;DHT22;36669;51.428;21.162;2023-08-21T03:05:36;20.90;99.90
44886;DHT22;36669;51.428;21.162;2023-08-21T03:08:02;20.80;99.90
44886;DHT22;36669;51.428;21.162;2023-08-21T03:10:28;20.80;99.90
44886;DHT22;36669;51.428;21.162;2023-08-21T03:12:55;20.80;99.90
44886;DHT22;36669;51.428;21.162;2023-08-21T03:15:22;20.80;99.90
44886;DHT22;36669;51.428;21.162;2023-08-21T03:17:49;20.80;99.90
44886;DHT22;36669;51.428;21.162;2023-08-21T03:20:16;20.80;99.90
44886;DHT22;36669;51.428;21.162;2023-08-21T03:22:45;20.80;99.90
44886;DHT22;36669;51.428;21.162;2023-08-21T03:25:13;20.80;99.90
44886;DHT22;36669;51.428;21.162;2023-08-21T03:27:41;20.80;99.90
44886;DHT22;36669;51.428;21.162;2023-08-21T03:30:10;20.70;99.90
44886;DHT22;36669;51.428;21.162;2023-08-21T03:32:37;20.70;99.90
44886;DHT22;36669;51.428;21.162;2023-08-21T03:35:05;20.70;99.90
44886;DHT22;36669;51.428;21.162;2023-08-21T03:37:32;20.70;99.90
44886;DHT22;36669;51.428;21.162;2023-08-21T03:39:59;20.70;99.90
44886;DHT22;36669;51.428;21.162;2023-08-21T03:42:26;20.70;99.90
44886;DHT22;36669;51.428;21.162;2023-08-21T03:44:53;20.70;99.90
44886;DHT22;36669;51.428;21.162;2023-08-21T03:47:21;20.70;99.90
44886;DHT22;36669;51.428;21.162;2023-08-21T03:49:48;20.60;99.90
44886;DHT22;36669;51.428;21.162;2023-08-21T03:52:16;20.60;99.90
44886;DHT22;36669;51.428;21.162;2023-08-21T03:54:44;20.60;99.90
44886;DHT22;36669;51.428;21.162;2023-08-21T03:57:11;20.60;99.90
44886;DHT22;36669;51.428;21.162;2023-08-21T03:59:38;20.60;99.90
44886;DHT22;36669;51.428;21.162;2023-08-21T04:02:06;20.50;99.90
44886;DHT22;36669;51.428;21.162;2023-08-21T04:04:32;20.50;99.90
44886;DHT22;36669;51.428;21.162;2023-08-21T04:06:58;20.50;99.90
44886;DHT22;36669;51.428;21.162;2023-08-21T04:09:25;20.50;99.90
44886;DHT22;36669;51.428;21.162;2023-08-21T04:11:57;20.50;99.90
44886;DHT22;36669;51.428;21.162;2023-08-21T04:14:26;20.50;99.90
44886;DHT22;36669;51.428;21.162;2023-08-21T04:16:54;20.60;99.90
44886;DHT22;36669;51.428;21.162;2023-08-21T04:19:20;20.60;99.90
44886;DHT22;36669;51.428;21.162;2023-08-21T04:21:47;20.60;99.90
44886;DHT22;36669;51.428;21.162;2023-08-21T04:24:15;20.60;99.90
44886;DHT22;36669;51.428;21.162;2023-08-21T04:26:41;20.60;99.90
44886;DHT22;36669;51.428;21.162;2023-08-21T04:29:07;20.60;99.90
44886;DHT22;36669;51.428;21.162;2023-08-21T04:31:36;20.70;99.90
44886;DHT22;36669;51.428;21.162;2023-08-21T04:34:03;20.80;99.90
44886;DHT22;36669;51.428;21.162;2023-08-21T04:36:30;20.90;99.90
44886;DHT22;36669;51.428;21.162;2023-08-21T04:38:59;21.00;99.90
44886;DHT22;36669;51.428;21.162;2023-08-21T04:41:26;21.10;99.90
44886;DHT22;36669;51.428;21.162;2023-08-21T04:43:53;21.20;99.90
44886;DHT22;36669;51.428;21.162;2023-08-21T04:46:20;21.20;99.90
44886;DHT22;36669;51.428;21.162;2023-08-21T04:48:49;21.30;99.90
44886;DHT22;36669;51.428;21.162;2023-08-21T04:51:17;21.30;99.90
44886;DHT22;36669;51.428;21.162;2023-08-21T04:53:47;21.40;99.90
44886;DHT22;36669;51.428;21.162;2023-08-21T04:56:14;21.40;99.90
44886;DHT22;36669;51.428;21.162;2023-08-21T04:58:41;21.40;99.90
44886;DHT22;36669;51.428;21.162;2023-08-21T05:01:08;21.40;99.90
44886;DHT22;36669;51.428;21.162;2023-08-21T05:03:34;21.50;99.90
44886;DHT22;36669;51.428;21.162;2023-08-21T05:05:59;21.50;99.90
44886;DHT22;36669;51.428;21.162;2023-08-21T05:08:27;21.60;99.90
44886;DHT22;36669;51.428;21.162;2023-08-21T05:11:00;21.60;99.90
44886;DHT22;36669;51.428;21.162;2023-08-21T05:13:26;21.70;99.90
44886;DHT22;36669;51.428;21.162;2023-08-21T05:15:58;21.70;99.90
44886;DHT22;36669;51.428;21.162;2023-08-21T05:18:28;21.80;99.90
44886;DHT22;36669;51.428;21.162;2023-08-21T05:20:57;21.90;99.90
44886;DHT22;36669;51.428;21.162;2023-08-21T05:23:24;21.90;99.90
44886;DHT22;36669;51.428;21.162;2023-08-21T05:25:52;22.00;99.90
44886;DHT22;36669;51.428;21.162;2023-08-21T05:28:21;22.00;99.90
44886;DHT22;36669;51.428;21.162;2023-08-21T05:30:48;22.10;99.90
44886;DHT22;36669;51.428;21.162;2023-08-21T05:33:21;22.20;99.90
44886;DHT22;36669;51.428;21.162;2023-08-21T05:35:48;22.30;99.90
44886;DHT22;36669;51.428;21.162;2023-08-21T05:38:15;22.50;99.90
44886;DHT22;36669;51.428;21.162;2023-08-21T05:40:41;22.60;99.90
44886;DHT22;36669;51.428;21.162;2023-08-21T05:43:10;22.70;99.90
44886;DHT22;36669;51.428;21.162;2023-08-21T05:45:35;22.80;99.90
44886;DHT22;36669;51.428;21.162;2023-08-21T05:48:02;23.00;99.90
44886;DHT22;36669;51.428;21.162;2023-08-21T05:50:29;23.10;99.90
44886;DHT22;36669;51.428;21.162;2023-08-21T05:52:56;23.20;99.90
44886;DHT22;36669;51.428;21.162;2023-08-21T05:55:23;23.30;99.90
44886;DHT22;36669;51.428;21.162;2023-08-21T05:57:49;23.40;99.90
44886;DHT22;36669;51.428;21.162;2023-08-21T06:00:17;23.50;99.90
44886;DHT22;36669;51.428;21.162;2023-08-21T06:02:46;23.50;99.90
44886;DHT22;36669;51.428;21.162;2023-08-21T06:05:15;23.50;99.90
44886;DHT22;36669;51.428;21.162;2023-08-21T06:07:41;23.60;99.90
44886;DHT22;36669;51.428;21.162;2023-08-21T06:10:12;23.70;99.90
44886;DHT22;36669;51.428;21.162;2023-08-21T06:12:42;23.80;99.90
44886;DHT22;36669;51.428;21.162;2023-08-21T06:15:09;23.80;99.90
44886;DHT22;36669;51.428;21.162;2023-08-21T06:17:37;23.90;99.90
44886;DHT22;36669;51.428;21.162;2023-08-21T06:20:07;23.90;99.90
44886;DHT22;36669;51.428;21.162;2023-08-21T06:22:36;23.90;99.90
44886;DHT22;36669;51.428;21.162;2023-08-21T06:25:03;23.90;99.90
44886;DHT22;36669;51.428;21.162;2023-08-21T06:27:31;23.90;99.90
44886;DHT22;36669;51.428;21.162;2023-08-21T06:29:58;23.90;99.90
44886;DHT22;36669;51.428;21.162;2023-08-21T06:32:25;23.90;99.90
44886;DHT22;36669;51.428;21.162;2023-08-21T06:34:50;23.90;99.90
44886;DHT22;36669;51.428;21.162;2023-08-21T06:37:17;23.90;99.90
44886;DHT22;36669;51.428;21.162;2023-08-21T06:39:45;23.90;99.90
44886;DHT22;36669;51.428;21.162;2023-08-21T06:42:12;24.00;99.90
44886;DHT22;36669;51.428;21.162;2023-08-21T06:44:39;24.10;99.90
44886;DHT22;36669;51.428;21.162;2023-08-21T06:47:05;24.20;99.90
44886;DHT22;36669;51.428;21.162;2023-08-21T06:49:33;24.20;99.90
44886;DHT22;36669;51.428;21.162;2023-08-21T06:52:00;24.30;99.90
44886;DHT22;36669;51.428;21.162;2023-08-21T06:54:27;24.30;99.90
44886;DHT22;36669;51.428;21.162;2023-08-21T06:56:55;24.30;99.90
44886;DHT22;36669;51.428;21.162;2023-08-21T06:59:23;24.50;99.90
44886;DHT22;36669;51.428;21.162;2023-08-21T07:01:49;24.50;99.90
44886;DHT22;36669;51.428;21.162;2023-08-21T07:04:18;24.50;99.90
44886;DHT22;36669;51.428;21.162;2023-08-21T07:06:46;24.50;99.90
44886;DHT22;36669;51.428;21.162;2023-08-21T07:09:13;24.50;99.90
44886;DHT22;36669;51.428;21.162;2023-08-21T07:11:38;24.40;99.90
44886;DHT22;36669;51.428;21.162;2023-08-21T07:14:04;24.30;99.90
44886;DHT22;36669;51.428;21.162;2023-08-21T07:16:31;24.30;99.90
44886;DHT22;36669;51.428;21.162;2023-08-21T07:18:58;24.30;99.90
44886;DHT22;36669;51.428;21.162;2023-08-21T07:21:25;24.30;99.90
44886;DHT22;36669;51.428;21.162;2023-08-21T07:23:52;24.40;99.90
44886;DHT22;36669;51.428;21.162;2023-08-21T07:26:19;24.40;99.90
44886;DHT22;36669;51.428;21.162;2023-08-21T07:28:47;24.30;99.90
44886;DHT22;36669;51.428;21.162;2023-08-21T07:31:12;24.10;99.90
44886;DHT22;36669;51.428;21.162;2023-08-21T07:33:39;23.90;99.90
44886;DHT22;36669;51.428;21.162;2023-08-21T07:36:07;23.60;99.90
44886;DHT22;36669;51.428;21.162;2023-08-21T07:38:35;23.30;99.90
44886;DHT22;36669;51.428;21.162;2023-08-21T07:41:12;23.00;99.90
44886;DHT22;36669;51.428;21.162;2023-08-21T07:43:41;22.80;99.90
44886;DHT22;36669;51.428;21.162;2023-08-21T07:46:09;22.60;99.90
44886;DHT22;36669;51.428;21.162;2023-08-21T07:48:42;22.40;99.90
44886;DHT22;36669;51.428;21.162;2023-08-21T07:51:09;22.30;99.90
44886;DHT22;36669;51.428;21.162;2023-08-21T07:53:36;22.30;99.90
44886;DHT22;36669;51.428;21.162;2023-08-21T07:56:03;22.30;99.90
44886;DHT22;36669;51.428;21.162;2023-08-21T07:58:33;22.20;99.90
44886;DHT22;36669;51.428;21.162;2023-08-21T08:01:01;22.30;99.90
44886;DHT22;36669;51.428;21.162;2023-08-21T08:03:34;22.20;99.90
44886;DHT22;36669;51.428;21.162;2023-08-21T08:06:00;22.30;99.90
44886;DHT22;36669;51.428;21.162;2023-08-21T08:08:26;22.30;99.90
44886;DHT22;36669;51.428;21.162;2023-08-21T08:10:54;22.30;99.90
44886;DHT22;36669;51.428;21.162;2023-08-21T08:13:23;22.40;99.90
44886;DHT22;36669;51.428;21.162;2023-08-21T08:15:48;22.40;99.90
44886;DHT22;36669;51.428;21.162;2023-08-21T08:18:16;22.50;99.90
44886;DHT22;36669;51.428;21.162;2023-08-21T08:20:41;22.30;99.90
44886;DHT22;36669;51.428;21.162;2023-08-21T08:23:08;22.40;99.90
44886;DHT22;36669;51.428;21.162;2023-08-21T08:25:35;22.50;99.90
44886;DHT22;36669;51.428;21.162;2023-08-21T08:28:00;22.50;99.90
44886;DHT22;36669;51.428;21.162;2023-08-21T08:30:27;22.50;99.90
44886;DHT22;36669;51.428;21.162;2023-08-21T08:32:55;22.60;99.90
44886;DHT22;36669;51.428;21.162;2023-08-21T08:35:22;22.60;99.90
44886;DHT22;36669;51.428;21.162;2023-08-21T08:37:50;22.60;99.90
44886;DHT22;36669;51.428;21.162;2023-08-21T08:40:16;22.70;99.90
44886;DHT22;36669;51.428;21.162;2023-08-21T08:42:44;22.80;99.90
44886;DHT22;36669;51.428;21.162;2023-08-21T08:45:27;22.80;99.90
44886;DHT22;36669;51.428;21.162;2023-08-21T08:47:54;22.80;99.90
44886;DHT22;36669;51.428;21.162;2023-08-21T08:50:32;22.70;99.90
44886;DHT22;36669;51.428;21.162;2023-08-21T08:53:02;22.90;99.90
44886;DHT22;36669;51.428;21.162;2023-08-21T08:55:31;23.00;99.90
44886;DHT22;36669;51.428;21.162;2023-08-21T08:57:57;23.30;99.90
44886;DHT22;36669;51.428;21.162;2023-08-21T09:00:24;23.50;99.90
44886;DHT22;36669;51.428;21.162;2023-08-21T09:02:55;23.70;99.90
44886;DHT22;36669;51.428;21.162;2023-08-21T09:05:22;23.70;99.90
44886;DHT22;36669;51.428;21.162;2023-08-21T09:08:02;23.70;99.90
44886;DHT22;36669;51.428;21.162;2023-08-21T09:10:31;23.90;99.90
44886;DHT22;36669;51.428;21.162;2023-08-21T09:12:58;23.90;99.90
44886;DHT22;36669;51.428;21.162;2023-08-21T09:15:31;24.00;99.90
44886;DHT22;36669;51.428;21.162;2023-08-21T09:18:00;24.30;99.90
44886;DHT22;36669;51.428;21.162;2023-08-21T09:20:34;24.60;99.90
44886;DHT22;36669;51.428;21.162;2023-08-21T09:23:02;24.40;99.90
44886;DHT22;36669;51.428;21.162;2023-08-21T09:25:35;24.70;99.90
44886;DHT22;36669;51.428;21.162;2023-08-21T09:28:06;24.90;99.90
44886;DHT22;36669;51.428;21.162;2023-08-21T09:30:52;24.90;99.90
44886;DHT22;36669;51.428;21.162;2023-08-21T09:33:25;24.90;99.90
44886;DHT22;36669;51.428;21.162;2023-08-21T09:35:56;24.80;99.90
44886;DHT22;36669;51.428;21.162;2023-08-21T09:38:26;24.80;99.90
44886;DHT22;36669;51.428;21.162;2023-08-21T09:40:54;24.80;99.90
44886;DHT22;36669;51.428;21.162;2023-08-21T09:43:26;24.70;99.90
44886;DHT22;36669;51.428;21.162;2023-08-21T09:46:02;24.60;99.90
44886;DHT22;36669;51.428;21.162;2023-08-21T09:48:32;24.70;99.90
44886;DHT22;36669;51.428;21.162;2023-08-21T09:50:58;24.80;99.90
44886;DHT22;36669;51.428;21.162;2023-08-21T09:53:30;24.90;99.90
44886;DHT22;36669;51.428;21.162;2023-08-21T09:56:00;25.10;99.90
44886;DHT22;36669;51.428;21.162;2023-08-21T09:58:29;24.90;99.90
44886;DHT22;36669;51.428;21.162;2023-08-21T10:00:59;24.60;99.90
44886;DHT22;36669;51.428;21.162;2023-08-21T10:03:27;24.70;99.90
44886;DHT22;36669;51.428;21.162;2023-08-21T10:06:04;24.70;99.90
44886;DHT22;36669;51.428;21.162;2023-08-21T10:08:39;24.90;99.90
44886;DHT22;36669;51.428;21.162;2023-08-21T10:11:10;24.90;99.90
44886;DHT22;36669;51.428;21.162;2023-08-21T10:13:41;24.90;99.90
44886;DHT22;36669;51.428;21.162;2023-08-21T10:16:07;25.00;99.90
44886;DHT22;36669;51.428;21.162;2023-08-21T10:18:37;25.10;99.90
44886;DHT22;36669;51.428;21.162;2023-08-21T10:21:22;25.10;99.90
44886;DHT22;36669;51.428;21.162;2023-08-21T10:23:54;24.90;99.90
44886;DHT22;36669;51.428;21.162;2023-08-21T10:26:22;24.90;99.90
44886;DHT22;36669;51.428;21.162;2023-08-21T10:29:04;24.70;99.90
44886;DHT22;36669;51.428;21.162;2023-08-21T10:31:42;24.70;99.90
44886;DHT22;36669;51.428;21.162;2023-08-21T10:34:13;24.90;99.90
44886;DHT22;36669;51.428;21.162;2023-08-21T10:39:26;25.50;99.90
44886;DHT22;36669;51.428;21.162;2023-08-21T10:42:01;25.50;99.90
44886;DHT22;36669;51.428;21.162;2023-08-21T10:44:47;25.40;99.90
44886;DHT22;36669;51.428;21.162;2023-08-21T10:50:02;25.90;99.90
44886;DHT22;36669;51.428;21.162;2023-08-21T10:52:53;26.00;99.90
44886;DHT22;36669;51.428;21.162;2023-08-21T10:55:20;26.10;99.90
44886;DHT22;36669;51.428;21.162;2023-08-21T10:57:48;26.10;99.90
44886;DHT22;36669;51.428;21.162;2023-08-21T11:00:17;26.30;99.90
44886;DHT22;36669;51.428;21.162;2023-08-21T11:02:46;26.40;99.90
44886;DHT22;36669;51.428;21.162;2023-08-21T11:05:14;26.70;99.90
44886;DHT22;36669;51.428;21.162;2023-08-21T11:07:48;26.70;99.90
44886;DHT22;36669;51.428;21.162;2023-08-21T11:10:16;26.70;99.90
44886;DHT22;36669;51.428;21.162;2023-08-21T11:12:57;26.70;99.90
44886;DHT22;36669;51.428;21.162;2023-08-21T11:15:27;26.80;99.90
44886;DHT22;36669;51.428;21.162;2023-08-21T11:17:58;26.70;99.90
44886;DHT22;36669;51.428;21.162;2023-08-21T11:20:33;26.80;99.90
44886;DHT22;36669;51.428;21.162;2023-08-21T11:23:03;26.90;99.90
44886;DHT22;36669;51.428;21.162;2023-08-21T11:25:39;27.00;99.90
44886;DHT22;36669;51.428;21.162;2023-08-21T11:28:06;27.10;99.90
44886;DHT22;36669;51.428;21.162;2023-08-21T11:30:35;27.10;99.90
44886;DHT22;36669;51.428;21.162;2023-08-21T11:33:10;27.20;99.90
44886;DHT22;36669;51.428;21.162;2023-08-21T11:35:38;27.20;99.90
44886;DHT22;36669;51.428;21.162;2023-08-21T11:38:04;27.30;99.90
44886;DHT22;36669;51.428;21.162;2023-08-21T11:40:34;27.60;99.90
44886;DHT22;36669;51.428;21.162;2023-08-21T11:43:02;27.70;99.90
44886;DHT22;36669;51.428;21.162;2023-08-21T11:45:30;27.60;99.90
44886;DHT22;36669;51.428;21.162;2023-08-21T11:47:56;27.60;99.90
44886;DHT22;36669;51.428;21.162;2023-08-21T11:50:23;27.90;99.90
44886;DHT22;36669;51.428;21.162;2023-08-21T11:52:53;28.00;99.90
44886;DHT22;36669;51.428;21.162;2023-08-21T11:55:20;28.20;99.90
44886;DHT22;36669;51.428;21.162;2023-08-21T11:57:53;28.30;99.90
44886;DHT22;36669;51.428;21.162;2023-08-21T12:00:27;28.50;99.90
44886;DHT22;36669;51.428;21.162;2023-08-21T12:02:59;28.50;99.90
44886;DHT22;36669;51.428;21.162;2023-08-21T12:05:27;28.80;99.90
44886;DHT22;36669;51.428;21.162;2023-08-21T12:07:54;28.60;99.90
44886;DHT22;36669;51.428;21.162;2023-08-21T12:10:25;28.70;99.90
44886;DHT22;36669;51.428;21.162;2023-08-21T12:12:51;28.80;99.90
44886;DHT22;36669;51.428;21.162;2023-08-21T12:15:19;28.70;99.90
44886;DHT22;36669;51.428;21.162;2023-08-21T12:17:45;28.70;99.90
44886;DHT22;36669;51.428;21.162;2023-08-21T12:20:12;29.20;99.90
44886;DHT22;36669;51.428;21.162;2023-08-21T12:22:41;29.10;99.90
44886;DHT22;36669;51.428;21.162;2023-08-21T12:25:13;28.80;99.90
44886;DHT22;36669;51.428;21.162;2023-08-21T12:27:41;29.30;99.90
44886;DHT22;36669;51.428;21.162;2023-08-21T12:30:08;29.30;99.90
44886;DHT22;36669;51.428;21.162;2023-08-21T12:32:35;29.50;99.90
44886;DHT22;36669;51.428;21.162;2023-08-21T12:35:02;29.40;99.90
44886;DHT22;36669;51.428;21.162;2023-08-21T12:37:29;29.10;99.90
44886;DHT22;36669;51.428;21.162;2023-08-21T12:39:56;29.30;99.90
44886;DHT22;36669;51.428;21.162;2023-08-21T12:42:23;29.50;99.90
44886;DHT22;36669;51.428;21.162;2023-08-21T12:44:50;29.40;99.90
44886;DHT22;36669;51.428;21.162;2023-08-21T12:47:17;29.20;99.90
44886;DHT22;36669;51.428;21.162;2023-08-21T12:49:44;28.90;99.90
44886;DHT22;36669;51.428;21.162;2023-08-21T12:52:11;28.80;99.90
44886;DHT22;36669;51.428;21.162;2023-08-21T12:54:40;28.70;99.90
44886;DHT22;36669;51.428;21.162;2023-08-21T12:57:11;28.70;99.90
44886;DHT22;36669;51.428;21.162;2023-08-21T12:59:38;28.50;99.90
44886;DHT22;36669;51.428;21.162;2023-08-21T13:02:03;28.50;99.90
44886;DHT22;36669;51.428;21.162;2023-08-21T13:04:30;28.30;99.90
44886;DHT22;36669;51.428;21.162;2023-08-21T13:06:57;28.60;99.90
44886;DHT22;36669;51.428;21.162;2023-08-21T13:09:24;29.00;99.90
44886;DHT22;36669;51.428;21.162;2023-08-21T13:11:51;29.00;99.90
44886;DHT22;36669;51.428;21.162;2023-08-21T13:14:19;29.30;99.90
44886;DHT22;36669;51.428;21.162;2023-08-21T13:16:45;30.00;99.90
44886;DHT22;36669;51.428;21.162;2023-08-21T13:19:12;30.30;99.90
44886;DHT22;36669;51.428;21.162;2023-08-21T13:21:38;30.40;99.90
44886;DHT22;36669;51.428;21.162;2023-08-21T13:24:06;29.90;99.90
44886;DHT22;36669;51.428;21.162;2023-08-21T13:26:32;30.20;99.90
44886;DHT22;36669;51.428;21.162;2023-08-21T13:28:59;30.30;99.90
44886;DHT22;36669;51.428;21.162;2023-08-21T13:31:26;30.50;99.90
44886;DHT22;36669;51.428;21.162;2023-08-21T13:33:55;30.80;99.90
44886;DHT22;36669;51.428;21.162;2023-08-21T13:36:22;30.80;99.90
44886;DHT22;36669;51.428;21.162;2023-08-21T13:38:49;31.30;99.90
44886;DHT22;36669;51.428;21.162;2023-08-21T13:41:16;31.80;99.90
44886;DHT22;36669;51.428;21.162;2023-08-21T13:43:43;31.90;99.90
44886;DHT22;36669;51.428;21.162;2023-08-21T13:46:08;31.80;99.90
44886;DHT22;36669;51.428;21.162;2023-08-21T13:48:35;31.90;99.90
44886;DHT22;36669;51.428;21.162;2023-08-21T13:51:02;32.20;99.90
44886;DHT22;36669;51.428;21.162;2023-08-21T13:53:29;32.70;99.90
44886;DHT22;36669;51.428;21.162;2023-08-21T13:55:56;32.70;99.90
44886;DHT22;36669;51.428;21.162;2023-08-21T13:58:21;32.70;99.90
44886;DHT22;36669;51.428;21.162;2023-08-21T14:00:48;33.30;99.90
44886;DHT22;36669;51.428;21.162;2023-08-21T14:03:15;33.80;99.90
44886;DHT22;36669;51.428;21.162;2023-08-21T14:05:42;34.10;99.90
44886;DHT22;36669;51.428;21.162;2023-08-21T14:08:09;33.60;99.90
44886;DHT22;36669;51.428;21.162;2023-08-21T14:10:36;33.20;99.90
44886;DHT22;36669;51.428;21.162;2023-08-21T14:13:03;33.10;99.90
44886;DHT22;36669;51.428;21.162;2023-08-21T14:15:30;32.70;99.90
44886;DHT22;36669;51.428;21.162;2023-08-21T14:17:57;32.60;99.90
44886;DHT22;36669;51.428;21.162;2023-08-21T14:20:23;33.00;99.90
44886;DHT22;36669;51.428;21.162;2023-08-21T14:22:50;34.30;99.90
44886;DHT22;36669;51.428;21.162;2023-08-21T14:25:19;34.40;99.90
44886;DHT22;36669;51.428;21.162;2023-08-21T14:27:45;35.00;99.90
44886;DHT22;36669;51.428;21.162;2023-08-21T14:30:11;34.30;99.90
44886;DHT22;36669;51.428;21.162;2023-08-21T14:32:40;34.50;99.90
44886;DHT22;36669;51.428;21.162;2023-08-21T14:35:07;34.60;99.90
44886;DHT22;36669;51.428;21.162;2023-08-21T14:37:36;34.40;99.90
44886;DHT22;36669;51.428;21.162;2023-08-21T14:40:04;34.00;99.90
44886;DHT22;36669;51.428;21.162;2023-08-21T14:42:36;34.10;99.90
44886;DHT22;36669;51.428;21.162;2023-08-21T14:45:04;34.90;99.90
44886;DHT22;36669;51.428;21.162;2023-08-21T14:47:33;34.40;99.70
44886;DHT22;36669;51.428;21.162;2023-08-21T14:50:00;33.40;99.90
44886;DHT22;36669;51.428;21.162;2023-08-21T14:52:26;33.20;99.90
44886;DHT22;36669;51.428;21.162;2023-08-21T14:54:52;32.30;99.90
44886;DHT22;36669;51.428;21.162;2023-08-21T14:57:20;31.40;99.90
44886;DHT22;36669;51.428;21.162;2023-08-21T14:59:46;30.60;99.90
44886;DHT22;36669;51.428;21.162;2023-08-21T15:02:12;30.10;99.90
44886;DHT22;36669;51.428;21.162;2023-08-21T15:04:40;30.20;99.90
44886;DHT22;36669;51.428;21.162;2023-08-21T15:07:07;29.90;99.90
44886;DHT22;36669;51.428;21.162;2023-08-21T15:09:32;30.00;99.90
44886;DHT22;36669;51.428;21.162;2023-08-21T15:12:03;29.40;99.90
44886;DHT22;36669;51.428;21.162;2023-08-21T15:14:33;29.70;99.90
44886;DHT22;36669;51.428;21.162;2023-08-21T15:16:59;29.80;99.90
44886;DHT22;36669;51.428;21.162;2023-08-21T15:19:25;29.50;99.90
44886;DHT22;36669;51.428;21.162;2023-08-21T15:21:51;29.20;99.90
44886;DHT22;36669;51.428;21.162;2023-08-21T15:24:19;29.40;99.90
44886;DHT22;36669;51.428;21.162;2023-08-21T15:26:46;29.70;99.90
44886;DHT22;36669;51.428;21.162;2023-08-21T15:29:13;29.50;99.90
44886;DHT22;36669;51.428;21.162;2023-08-21T15:31:39;29.40;99.90
44886;DHT22;36669;51.428;21.162;2023-08-21T15:34:06;29.30;99.90